GIPSM EGPE-EIDL

Flight info

Callsign GIPSM
Flight time N/A
Altitude 6500
Route OBN DCT LAY
Aircraft BE58/L-SDFGRY/C

Departure

Time N/A
Airport Inverness Airport (EGPE)

Arrival

Time 2026-04-21 18:08
Airport Donegal Airport (EIDL)
Time Latitude Longitude Altitude Speed Heading
2026-04-21 17:34 55.92100 -6.49373 6372 ft 172 kts 214°
2026-04-21 17:34 55.91265 -6.50607 6375 ft 172 kts 214°
2026-04-21 17:34 55.90332 -6.51986 6377 ft 172 kts 214°
2026-04-21 17:34 55.89442 -6.53303 6376 ft 173 kts 213°
2026-04-21 17:35 55.88510 -6.54693 6375 ft 173 kts 214°
2026-04-21 17:35 55.87583 -6.56076 6374 ft 173 kts 214°
2026-04-21 17:35 55.86651 -6.57535 6375 ft 176 kts 221°
2026-04-21 17:35 55.85842 -6.59172 6376 ft 177 kts 224°
2026-04-21 17:36 55.85030 -6.60851 6376 ft 177 kts 224°
2026-04-21 17:36 55.84228 -6.62502 6376 ft 177 kts 224°
2026-04-21 17:36 55.83431 -6.64154 6379 ft 177 kts 224°
2026-04-21 17:36 55.82637 -6.65804 6474 ft 170 kts 223°
2026-04-21 17:37 55.81876 -6.67411 6527 ft 169 kts 223°
2026-04-21 17:37 55.81114 -6.69018 6534 ft 171 kts 223°
2026-04-21 17:37 55.80351 -6.70634 6527 ft 173 kts 223°
2026-04-21 17:37 55.79573 -6.72272 6527 ft 174 kts 223°
2026-04-21 17:38 55.78788 -6.73926 6521 ft 175 kts 223°
2026-04-21 17:38 55.78009 -6.75570 6516 ft 175 kts 223°
2026-04-21 17:38 55.77211 -6.77222 6524 ft 175 kts 221°
2026-04-21 17:38 55.76407 -6.78823 6521 ft 176 kts 221°
2026-04-21 17:39 55.75584 -6.80444 6516 ft 176 kts 221°
2026-04-21 17:39 55.74766 -6.82054 6512 ft 176 kts 221°
2026-04-21 17:39 55.73945 -6.83666 6517 ft 176 kts 221°
2026-04-21 17:39 55.73124 -6.85274 6515 ft 176 kts 221°
2026-04-21 17:40 55.72304 -6.86881 6514 ft 176 kts 221°
2026-04-21 17:40 55.71487 -6.88489 6515 ft 176 kts 221°
2026-04-21 17:40 55.70667 -6.90103 6515 ft 176 kts 221°
2026-04-21 17:40 55.69843 -6.91722 6515 ft 176 kts 221°
2026-04-21 17:41 55.69031 -6.93320 6518 ft 176 kts 221°
2026-04-21 17:41 55.68209 -6.94939 6520 ft 176 kts 221°
2026-04-21 17:41 55.67399 -6.96539 6521 ft 176 kts 221°
2026-04-21 17:41 55.66582 -6.98157 6517 ft 176 kts 221°
2026-04-21 17:42 55.65755 -6.99801 6510 ft 177 kts 221°
2026-04-21 17:42 55.64932 -7.01436 6511 ft 177 kts 221°
2026-04-21 17:42 55.64117 -7.03050 6512 ft 177 kts 221°
2026-04-21 17:42 55.63287 -7.04684 6514 ft 176 kts 221°
2026-04-21 17:43 55.62471 -7.06287 6517 ft 176 kts 221°
2026-04-21 17:43 55.61641 -7.07914 6519 ft 176 kts 221°
2026-04-21 17:43 55.60830 -7.09506 6513 ft 176 kts 221°
2026-04-21 17:43 55.60007 -7.11132 6512 ft 176 kts 221°
2026-04-21 17:44 55.59193 -7.12750 6509 ft 176 kts 221°
2026-04-21 17:44 55.58378 -7.14374 6508 ft 176 kts 221°
2026-04-21 17:44 55.57573 -7.15974 6508 ft 176 kts 221°
2026-04-21 17:44 55.56757 -7.17604 6505 ft 177 kts 221°
2026-04-21 17:45 55.55942 -7.19233 6500 ft 177 kts 221°
2026-04-21 17:45 55.55120 -7.20878 6501 ft 177 kts 221°
2026-04-21 17:45 55.54308 -7.22494 6503 ft 177 kts 221°
2026-04-21 17:45 55.53482 -7.24130 6507 ft 177 kts 221°
2026-04-21 17:46 55.52662 -7.25756 6512 ft 177 kts 221°
2026-04-21 17:46 55.51833 -7.27398 6517 ft 177 kts 221°
2026-04-21 17:46 55.51019 -7.29006 6515 ft 177 kts 221°
2026-04-21 17:46 55.50191 -7.30649 6505 ft 177 kts 221°
2026-04-21 17:47 55.49363 -7.32308 6505 ft 177 kts 221°
2026-04-21 17:47 55.48542 -7.33949 6508 ft 177 kts 221°
2026-04-21 17:47 55.47715 -7.35609 6509 ft 177 kts 221°
2026-04-21 17:47 55.46892 -7.37259 6508 ft 177 kts 221°
2026-04-21 17:48 55.46062 -7.38923 6508 ft 177 kts 221°
2026-04-21 17:48 55.45239 -7.40568 6403 ft 179 kts 221°
2026-04-21 17:48 55.44423 -7.42199 6294 ft 178 kts 221°
2026-04-21 17:48 55.43590 -7.43859 6176 ft 178 kts 221°
2026-04-21 17:49 55.42765 -7.45505 6060 ft 178 kts 221°
2026-04-21 17:49 55.41930 -7.47172 5940 ft 178 kts 221°
2026-04-21 17:49 55.41094 -7.48843 5822 ft 178 kts 221°
2026-04-21 17:49 55.40267 -7.50502 5706 ft 178 kts 221°
2026-04-21 17:50 55.39436 -7.52170 5593 ft 178 kts 221°
2026-04-21 17:50 55.38593 -7.53866 5478 ft 178 kts 221°
2026-04-21 17:50 55.37754 -7.55563 5362 ft 177 kts 221°
2026-04-21 17:50 55.36920 -7.57262 5245 ft 177 kts 221°
2026-04-21 17:51 55.36074 -7.58983 5130 ft 177 kts 222°
2026-04-21 17:51 55.35210 -7.60728 5018 ft 177 kts 221°
2026-04-21 17:51 55.34399 -7.62366 4871 ft 158 kts 221°
2026-04-21 17:51 55.33735 -7.63769 4574 ft 137 kts 221°
2026-04-21 17:52 55.33131 -7.65089 4239 ft 142 kts 224°
2026-04-21 17:52 55.32487 -7.66457 3928 ft 144 kts 219°
2026-04-21 17:52 55.31765 -7.67609 3639 ft 141 kts 208°
2026-04-21 17:52 55.31076 -7.68955 3330 ft 145 kts 217°
2026-04-21 17:53 55.30442 -7.70302 3127 ft 139 kts 216°
2026-04-21 17:53 55.29763 -7.71340 2948 ft 113 kts 165°
2026-04-21 17:53 55.29343 -7.70771 2737 ft 86 kts 59°
2026-04-21 17:53 55.29813 -7.70070 2450 ft 76 kts 109°
2026-04-21 17:54 55.29340 -7.69779 2226 ft 113 kts 209°
2026-04-21 17:54 55.28824 -7.70886 2145 ft 116 kts 255°
2026-04-21 17:54 55.28553 -7.72252 1967 ft 122 kts 208°
2026-04-21 17:54 55.27780 -7.72963 2001 ft 127 kts 198°
2026-04-21 17:55 55.27069 -7.74119 2017 ft 148 kts 220°
2026-04-21 17:55 55.26351 -7.75565 2019 ft 158 kts 220°
2026-04-21 17:55 55.25608 -7.77050 2015 ft 165 kts 221°
2026-04-21 17:55 55.24829 -7.78588 2016 ft 170 kts 221°
2026-04-21 17:56 55.24036 -7.80136 2016 ft 173 kts 220°
2026-04-21 17:56 55.23218 -7.81729 2008 ft 175 kts 220°
2026-04-21 17:56 55.22410 -7.83303 2016 ft 174 kts 220°
2026-04-21 17:56 55.21643 -7.84961 1996 ft 175 kts 226°
2026-04-21 17:57 55.20878 -7.86716 2015 ft 173 kts 225°
2026-04-21 17:57 55.20122 -7.88464 2007 ft 172 kts 226°
2026-04-21 17:57 55.19408 -7.90131 2006 ft 172 kts 226°
2026-04-21 17:57 55.18683 -7.91823 1996 ft 173 kts 226°
2026-04-21 17:58 55.18005 -7.93602 2022 ft 173 kts 234°
2026-04-21 17:58 55.17380 -7.95493 2007 ft 175 kts 234°
2026-04-21 17:58 55.16846 -7.97427 1969 ft 179 kts 243°
2026-04-21 17:58 55.16421 -7.99446 2046 ft 174 kts 248°
2026-04-21 17:59 55.16065 -8.01447 2106 ft 172 kts 248°
2026-04-21 17:59 55.15719 -8.03431 2212 ft 168 kts 249°
2026-04-21 17:59 55.15317 -8.05429 2071 ft 179 kts 245°
2026-04-21 17:59 55.14855 -8.07437 2102 ft 176 kts 245°
2026-04-21 18:00 55.14417 -8.09460 2052 ft 181 kts 248°
2026-04-21 18:00 55.14009 -8.11566 2087 ft 178 kts 248°
2026-04-21 18:00 55.13635 -8.13641 2073 ft 179 kts 252°
2026-04-21 18:00 55.13291 -8.15755 2061 ft 180 kts 251°
2026-04-21 18:01 55.12923 -8.17824 2109 ft 177 kts 248°
2026-04-21 18:01 55.12571 -8.19870 2103 ft 179 kts 252°
2026-04-21 18:01 55.12280 -8.21997 2102 ft 180 kts 256°
2026-04-21 18:01 55.12041 -8.24142 2104 ft 180 kts 258°
2026-04-21 18:02 55.11876 -8.26314 2097 ft 181 kts 263°
2026-04-21 18:02 55.11667 -8.28486 2074 ft 181 kts 253°
2026-04-21 18:02 55.11247 -8.30560 2050 ft 179 kts 243°
2026-04-21 18:02 55.10680 -8.32433 2084 ft 174 kts 234°
2026-04-21 18:03 55.10003 -8.34171 2073 ft 173 kts 227°
2026-04-21 18:03 55.09128 -8.35552 1982 ft 168 kts 203°
2026-04-21 18:03 55.08139 -8.36588 1999 ft 164 kts 205°
2026-04-21 18:03 55.07199 -8.37760 1829 ft 172 kts 211°
2026-04-21 18:04 55.06265 -8.39110 1706 ft 172 kts 212°
2026-04-21 18:04 55.05334 -8.40451 1626 ft 169 kts 214°
2026-04-21 18:04 55.04402 -8.41752 1417 ft 173 kts 213°
2026-04-21 18:04 55.03425 -8.42798 1421 ft 155 kts 195°
2026-04-21 18:05 55.02438 -8.42957 1351 ft 134 kts 159°
2026-04-21 18:05 55.01702 -8.42254 1299 ft 106 kts 129°
2026-04-21 18:05 55.01365 -8.41172 1099 ft 97 kts 110°
2026-04-21 18:05 55.01208 -8.40122 1055 ft 84 kts 99°
2026-04-21 18:06 55.01175 -8.39121 962 ft 81 kts 93°
2026-04-21 18:06 55.01194 -8.38133 953 ft 78 kts 90°
2026-04-21 18:06 55.01334 -8.37195 912 ft 84 kts 76°
2026-04-21 18:06 55.01699 -8.36276 755 ft 98 kts 52°
2026-04-21 18:07 55.02319 -8.35583 549 ft 104 kts 37°
2026-04-21 18:07 55.02967 -8.35081 290 ft 99 kts 32°
2026-04-21 18:07 55.03592 -8.34653 78 ft 93 kts 33°
2026-04-21 18:07 55.04164 -8.34257 8 ft 80 kts 19°
2026-04-21 18:08 55.04591 -8.33982 13 ft 39 kts 29°
2026-04-21 18:08 55.04725 -8.33918 14 ft 5 kts 65°
2026-04-21 18:08 55.04677 -8.33933 14 ft 12 kts 202°
2026-04-21 18:08 55.04574 -8.34001 13 ft 18 kts 202°
2026-04-21 18:09 55.04439 -8.34097 10 ft 21 kts 201°
2026-04-21 18:09 55.04324 -8.34166 8 ft 17 kts 200°
2026-04-21 18:09 55.04201 -8.34248 8 ft 19 kts 200°
2026-04-21 18:09 55.04066 -8.34333 8 ft 21 kts 200°
2026-04-21 18:10 55.03924 -8.34418 8 ft 11 kts 195°
2026-04-21 18:10 55.03876 -8.34340 8 ft 9 kts 106°
2026-04-21 18:10 55.03885 -8.34241 6 ft 5 kts 86°
2026-04-21 18:10 55.03848 -8.34235 6 ft 4 kts 223°
2026-04-21 18:11 55.03849 -8.34270 7 ft 0 kts 289°